sensor_id;sensor_type;location;lat;lon;timestamp;P1;durP1;ratioP1;P2;durP2;ratioP2
321;SDS011;148;51.480;7.208;2022-09-23T12:56:15;9.30;;;4.10;;
321;SDS011;148;51.480;7.208;2022-09-23T13:03:51;7.00;;;3.50;;
321;SDS011;148;51.480;7.208;2022-09-23T13:06:56;6.23;;;3.70;;
321;SDS011;148;51.480;7.208;2022-09-23T13:09:30;8.53;;;3.83;;
321;SDS011;148;51.480;7.208;2022-09-23T13:12:07;6.97;;;3.57;;
321;SDS011;148;51.480;7.208;2022-09-23T13:14:42;5.77;;;3.57;;
321;SDS011;148;51.480;7.208;2022-09-23T13:17:23;9.17;;;5.27;;
321;SDS011;148;51.480;7.208;2022-09-23T13:25:18;12.33;;;3.90;;
321;SDS011;148;51.480;7.208;2022-09-23T13:27:53;7.10;;;4.07;;
321;SDS011;148;51.480;7.208;2022-09-23T13:30:21;6.50;;;3.93;;
321;SDS011;148;51.480;7.208;2022-09-23T13:32:50;6.40;;;3.67;;
321;SDS011;148;51.480;7.208;2022-09-23T13:35:47;4.47;;;3.50;;
321;SDS011;148;51.480;7.208;2022-09-23T13:40:54;6.67;;;3.60;;
321;SDS011;148;51.480;7.208;2022-09-23T13:43:35;7.43;;;3.90;;
321;SDS011;148;51.480;7.208;2022-09-23T13:46:07;6.30;;;3.97;;
321;SDS011;148;51.480;7.208;2022-09-23T13:48:40;9.03;;;4.00;;
321;SDS011;148;51.480;7.208;2022-09-23T13:51:10;11.57;;;3.80;;
321;SDS011;148;51.480;7.208;2022-09-23T13:53:40;4.23;;;3.60;;
321;SDS011;148;51.480;7.208;2022-09-23T13:56:12;13.00;;;4.03;;
321;SDS011;148;51.480;7.208;2022-09-23T13:58:39;6.40;;;3.50;;
321;SDS011;148;51.480;7.208;2022-09-23T14:01:14;10.00;;;4.27;;
321;SDS011;148;51.480;7.208;2022-09-23T14:03:58;7.67;;;3.93;;
321;SDS011;148;51.480;7.208;2022-09-23T14:06:24;6.17;;;3.60;;
321;SDS011;148;51.480;7.208;2022-09-23T14:08:53;6.53;;;3.43;;
321;SDS011;148;51.480;7.208;2022-09-23T14:11:21;7.27;;;4.13;;
321;SDS011;148;51.480;7.208;2022-09-23T14:13:53;7.27;;;3.50;;
321;SDS011;148;51.480;7.208;2022-09-23T14:16:20;11.00;;;3.60;;
321;SDS011;148;51.480;7.208;2022-09-23T14:18:51;7.13;;;3.90;;
321;SDS011;148;51.480;7.208;2022-09-23T14:21:31;11.43;;;4.50;;
321;SDS011;148;51.480;7.208;2022-09-23T14:24:12;12.40;;;4.37;;
321;SDS011;148;51.480;7.208;2022-09-23T14:26:38;7.63;;;3.70;;
321;SDS011;148;51.480;7.208;2022-09-23T14:29:09;6.67;;;3.63;;
321;SDS011;148;51.480;7.208;2022-09-23T14:31:41;13.50;;;3.97;;
321;SDS011;148;51.480;7.208;2022-09-23T14:37:52;10.70;;;4.07;;
321;SDS011;148;51.480;7.208;2022-09-23T14:43:01;6.23;;;3.60;;
321;SDS011;148;51.480;7.208;2022-09-23T14:45:32;7.03;;;3.80;;
321;SDS011;148;51.480;7.208;2022-09-23T14:48:01;7.17;;;3.50;;
321;SDS011;148;51.480;7.208;2022-09-23T14:50:32;28.20;;;4.20;;
321;SDS011;148;51.480;7.208;2022-09-23T14:53:04;7.93;;;3.80;;
321;SDS011;148;51.480;7.208;2022-09-23T14:58:26;5.30;;;4.03;;
321;SDS011;148;51.480;7.208;2022-09-23T15:01:01;6.17;;;3.70;;
321;SDS011;148;51.480;7.208;2022-09-23T15:03:45;7.43;;;4.23;;
321;SDS011;148;51.480;7.208;2022-09-23T15:06:11;8.60;;;4.33;;
321;SDS011;148;51.480;7.208;2022-09-23T15:08:37;7.23;;;3.80;;
321;SDS011;148;51.480;7.208;2022-09-23T15:11:02;7.20;;;4.03;;
321;SDS011;148;51.480;7.208;2022-09-23T15:13:29;5.63;;;4.00;;
321;SDS011;148;51.480;7.208;2022-09-23T15:15:58;4.43;;;3.17;;
321;SDS011;148;51.480;7.208;2022-09-23T15:18:29;10.30;;;4.30;;
321;SDS011;148;51.480;7.208;2022-09-23T15:21:12;6.50;;;3.80;;
321;SDS011;148;51.480;7.208;2022-09-23T15:23:46;5.53;;;4.20;;
321;SDS011;148;51.480;7.208;2022-09-23T15:26:39;6.33;;;4.20;;
321;SDS011;148;51.480;7.208;2022-09-23T15:29:11;6.30;;;4.00;;
321;SDS011;148;51.480;7.208;2022-09-23T15:31:36;6.73;;;3.40;;
321;SDS011;148;51.480;7.208;2022-09-23T15:34:03;6.40;;;4.00;;
321;SDS011;148;51.480;7.208;2022-09-23T15:36:33;7.03;;;3.40;;
321;SDS011;148;51.480;7.208;2022-09-23T15:39:03;7.73;;;4.03;;
321;SDS011;148;51.480;7.208;2022-09-23T15:41:32;9.50;;;4.30;;
321;SDS011;148;51.480;7.208;2022-09-23T15:44:01;6.73;;;3.83;;
321;SDS011;148;51.480;7.208;2022-09-23T15:46:35;8.43;;;3.90;;
321;SDS011;148;51.480;7.208;2022-09-23T15:49:03;11.63;;;3.93;;
321;SDS011;148;51.480;7.208;2022-09-23T15:51:36;8.67;;;3.90;;
321;SDS011;148;51.480;7.208;2022-09-23T15:54:02;10.20;;;4.27;;
321;SDS011;148;51.480;7.208;2022-09-23T15:56:30;7.53;;;4.07;;
321;SDS011;148;51.480;7.208;2022-09-23T15:58:55;12.40;;;4.30;;
321;SDS011;148;51.480;7.208;2022-09-23T16:03:54;5.97;;;4.00;;
321;SDS011;148;51.480;7.208;2022-09-23T16:06:21;6.37;;;4.03;;
321;SDS011;148;51.480;7.208;2022-09-23T16:08:48;10.97;;;5.23;;
321;SDS011;148;51.480;7.208;2022-09-23T16:11:20;7.80;;;4.27;;
321;SDS011;148;51.480;7.208;2022-09-23T16:13:48;13.80;;;6.27;;
321;SDS011;148;51.480;7.208;2022-09-23T16:16:14;11.27;;;4.40;;
321;SDS011;148;51.480;7.208;2022-09-23T16:18:41;10.97;;;4.50;;
321;SDS011;148;51.480;7.208;2022-09-23T16:21:14;13.87;;;4.80;;
321;SDS011;148;51.480;7.208;2022-09-23T16:23:44;5.43;;;3.93;;
321;SDS011;148;51.480;7.208;2022-09-23T16:26:15;8.63;;;4.63;;
321;SDS011;148;51.480;7.208;2022-09-23T16:28:50;12.30;;;4.93;;
321;SDS011;148;51.480;7.208;2022-09-23T16:31:18;15.90;;;5.20;;
321;SDS011;148;51.480;7.208;2022-09-23T16:33:44;8.20;;;4.43;;
321;SDS011;148;51.480;7.208;2022-09-23T16:36:21;10.87;;;4.47;;
321;SDS011;148;51.480;7.208;2022-09-23T16:38:49;10.70;;;4.73;;
321;SDS011;148;51.480;7.208;2022-09-23T16:41:15;16.10;;;4.73;;
321;SDS011;148;51.480;7.208;2022-09-23T16:43:40;10.03;;;4.63;;
321;SDS011;148;51.480;7.208;2022-09-23T16:46:07;11.90;;;4.20;;
321;SDS011;148;51.480;7.208;2022-09-23T16:48:34;9.90;;;4.50;;
321;SDS011;148;51.480;7.208;2022-09-23T16:51:04;7.27;;;4.30;;
321;SDS011;148;51.480;7.208;2022-09-23T16:53:30;11.43;;;5.53;;
321;SDS011;148;51.480;7.208;2022-09-23T16:56:02;11.23;;;5.77;;
321;SDS011;148;51.480;7.208;2022-09-23T16:58:29;13.10;;;5.40;;
321;SDS011;148;51.480;7.208;2022-09-23T17:00:57;14.10;;;5.53;;
321;SDS011;148;51.480;7.208;2022-09-23T17:03:41;13.93;;;6.20;;
321;SDS011;148;51.480;7.208;2022-09-23T17:06:10;11.73;;;5.30;;
321;SDS011;148;51.480;7.208;2022-09-23T17:08:37;16.50;;;5.73;;
321;SDS011;148;51.480;7.208;2022-09-23T17:11:04;13.77;;;6.40;;
321;SDS011;148;51.480;7.208;2022-09-23T17:13:31;13.00;;;5.77;;
321;SDS011;148;51.480;7.208;2022-09-23T17:15:57;8.67;;;5.50;;
321;SDS011;148;51.480;7.208;2022-09-23T17:18:23;11.33;;;6.00;;
321;SDS011;148;51.480;7.208;2022-09-23T17:20:59;17.00;;;6.20;;
321;SDS011;148;51.480;7.208;2022-09-23T17:23:30;12.77;;;6.07;;
321;SDS011;148;51.480;7.208;2022-09-23T17:25:57;15.10;;;7.30;;
321;SDS011;148;51.480;7.208;2022-09-23T17:28:23;10.90;;;6.40;;
321;SDS011;148;51.480;7.208;2022-09-23T17:30:50;10.20;;;5.57;;
321;SDS011;148;51.480;7.208;2022-09-23T17:33:21;7.57;;;5.20;;
321;SDS011;148;51.480;7.208;2022-09-23T17:35:47;15.83;;;6.10;;
321;SDS011;148;51.480;7.208;2022-09-23T17:38:13;15.30;;;5.93;;
321;SDS011;148;51.480;7.208;2022-09-23T17:40:39;12.83;;;6.70;;
321;SDS011;148;51.480;7.208;2022-09-23T17:43:05;11.83;;;5.97;;
321;SDS011;148;51.480;7.208;2022-09-23T17:45:34;10.13;;;5.60;;
321;SDS011;148;51.480;7.208;2022-09-23T17:48:01;9.73;;;5.37;;
321;SDS011;148;51.480;7.208;2022-09-23T17:50:27;11.60;;;5.93;;
321;SDS011;148;51.480;7.208;2022-09-23T17:52:56;12.73;;;6.30;;
321;SDS011;148;51.480;7.208;2022-09-23T17:55:24;11.20;;;5.50;;
321;SDS011;148;51.480;7.208;2022-09-23T17:57:50;8.13;;;5.50;;
321;SDS011;148;51.480;7.208;2022-09-23T18:00:16;11.83;;;6.97;;
321;SDS011;148;51.480;7.208;2022-09-23T18:02:42;10.40;;;5.37;;
321;SDS011;148;51.480;7.208;2022-09-23T18:05:08;10.53;;;6.30;;
321;SDS011;148;51.480;7.208;2022-09-23T18:07:33;18.17;;;6.63;;
321;SDS011;148;51.480;7.208;2022-09-23T18:09:59;12.93;;;6.43;;
321;SDS011;148;51.480;7.208;2022-09-23T18:12:25;14.40;;;6.40;;
321;SDS011;148;51.480;7.208;2022-09-23T18:14:51;11.13;;;5.77;;
321;SDS011;148;51.480;7.208;2022-09-23T18:17:17;11.27;;;6.10;;
321;SDS011;148;51.480;7.208;2022-09-23T18:19:42;13.90;;;5.70;;
321;SDS011;148;51.480;7.208;2022-09-23T18:22:13;12.17;;;6.40;;
321;SDS011;148;51.480;7.208;2022-09-23T18:24:38;13.10;;;6.10;;
321;SDS011;148;51.480;7.208;2022-09-23T18:27:06;15.20;;;6.20;;
321;SDS011;148;51.480;7.208;2022-09-23T18:29:32;12.73;;;5.30;;
321;SDS011;148;51.480;7.208;2022-09-23T18:31:58;16.37;;;6.80;;
321;SDS011;148;51.480;7.208;2022-09-23T18:34:24;13.80;;;6.80;;
321;SDS011;148;51.480;7.208;2022-09-23T18:36:50;14.17;;;6.80;;
321;SDS011;148;51.480;7.208;2022-09-23T18:39:18;11.93;;;6.07;;
321;SDS011;148;51.480;7.208;2022-09-23T18:41:44;9.97;;;5.60;;
321;SDS011;148;51.480;7.208;2022-09-23T18:44:09;8.97;;;6.00;;
321;SDS011;148;51.480;7.208;2022-09-23T18:46:35;9.10;;;5.80;;
321;SDS011;148;51.480;7.208;2022-09-23T18:49:01;7.80;;;6.00;;
321;SDS011;148;51.480;7.208;2022-09-23T18:51:50;8.67;;;5.70;;
321;SDS011;148;51.480;7.208;2022-09-23T18:54:16;17.97;;;5.77;;
321;SDS011;148;51.480;7.208;2022-09-23T18:56:43;14.07;;;6.30;;
321;SDS011;148;51.480;7.208;2022-09-23T18:59:11;15.47;;;5.90;;
321;SDS011;148;51.480;7.208;2022-09-23T19:01:40;8.23;;;5.90;;
321;SDS011;148;51.480;7.208;2022-09-23T19:04:06;7.87;;;5.90;;
321;SDS011;148;51.480;7.208;2022-09-23T19:06:32;13.67;;;6.17;;
321;SDS011;148;51.480;7.208;2022-09-23T19:08:58;9.43;;;5.73;;
321;SDS011;148;51.480;7.208;2022-09-23T19:11:25;12.70;;;6.70;;
321;SDS011;148;51.480;7.208;2022-09-23T19:13:51;9.10;;;5.93;;
321;SDS011;148;51.480;7.208;2022-09-23T19:16:18;15.17;;;6.50;;
321;SDS011;148;51.480;7.208;2022-09-23T19:18:45;17.67;;;6.33;;
321;SDS011;148;51.480;7.208;2022-09-23T19:21:12;20.90;;;6.57;;
321;SDS011;148;51.480;7.208;2022-09-23T19:23:43;21.63;;;6.57;;
321;SDS011;148;51.480;7.208;2022-09-23T19:26:15;9.83;;;6.50;;
321;SDS011;148;51.480;7.208;2022-09-23T19:28:50;15.90;;;7.10;;
321;SDS011;148;51.480;7.208;2022-09-23T19:31:18;18.50;;;7.07;;
321;SDS011;148;51.480;7.208;2022-09-23T19:33:53;14.83;;;6.97;;
321;SDS011;148;51.480;7.208;2022-09-23T19:36:28;14.47;;;6.67;;
321;SDS011;148;51.480;7.208;2022-09-23T19:38:59;12.20;;;5.97;;
321;SDS011;148;51.480;7.208;2022-09-23T19:41:30;17.70;;;6.67;;
321;SDS011;148;51.480;7.208;2022-09-23T19:43:57;12.37;;;6.23;;
321;SDS011;148;51.480;7.208;2022-09-23T19:46:31;19.70;;;7.00;;
321;SDS011;148;51.480;7.208;2022-09-23T19:49:02;15.67;;;6.53;;
321;SDS011;148;51.480;7.208;2022-09-23T19:51:29;11.47;;;6.50;;
321;SDS011;148;51.480;7.208;2022-09-23T19:53:57;11.53;;;6.40;;
321;SDS011;148;51.480;7.208;2022-09-23T19:56:25;12.93;;;5.77;;
321;SDS011;148;51.480;7.208;2022-09-23T19:58:51;12.13;;;6.40;;
321;SDS011;148;51.480;7.208;2022-09-23T20:01:18;13.63;;;6.50;;
321;SDS011;148;51.480;7.208;2022-09-23T20:03:45;15.33;;;7.27;;
321;SDS011;148;51.480;7.208;2022-09-23T20:06:11;16.17;;;7.03;;
321;SDS011;148;51.480;7.208;2022-09-23T20:08:38;13.17;;;6.83;;
321;SDS011;148;51.480;7.208;2022-09-23T20:11:04;12.23;;;6.40;;
321;SDS011;148;51.480;7.208;2022-09-23T20:13:38;14.83;;;5.70;;
321;SDS011;148;51.480;7.208;2022-09-23T20:16:12;11.90;;;5.97;;
321;SDS011;148;51.480;7.208;2022-09-23T20:18:40;19.13;;;6.43;;
321;SDS011;148;51.480;7.208;2022-09-23T20:21:07;17.33;;;6.40;;
321;SDS011;148;51.480;7.208;2022-09-23T20:23:34;15.20;;;7.20;;
321;SDS011;148;51.480;7.208;2022-09-23T20:26:00;12.20;;;5.90;;
321;SDS011;148;51.480;7.208;2022-09-23T20:28:45;10.87;;;6.00;;
321;SDS011;148;51.480;7.208;2022-09-23T20:31:11;12.90;;;6.43;;
321;SDS011;148;51.480;7.208;2022-09-23T20:33:38;18.80;;;6.37;;
321;SDS011;148;51.480;7.208;2022-09-23T20:36:06;14.70;;;7.10;;
321;SDS011;148;51.480;7.208;2022-09-23T20:38:33;10.20;;;5.97;;
321;SDS011;148;51.480;7.208;2022-09-23T20:40:59;14.60;;;6.30;;
321;SDS011;148;51.480;7.208;2022-09-23T20:43:25;11.97;;;6.43;;
321;SDS011;148;51.480;7.208;2022-09-23T20:45:52;12.10;;;6.40;;
321;SDS011;148;51.480;7.208;2022-09-23T20:48:20;12.77;;;6.03;;
321;SDS011;148;51.480;7.208;2022-09-23T20:50:47;15.80;;;5.60;;
321;SDS011;148;51.480;7.208;2022-09-23T20:53:15;10.97;;;6.43;;
321;SDS011;148;51.480;7.208;2022-09-23T20:55:53;13.00;;;6.50;;
321;SDS011;148;51.480;7.208;2022-09-23T20:58:24;11.80;;;7.43;;
321;SDS011;148;51.480;7.208;2022-09-23T21:01:00;10.80;;;6.20;;
321;SDS011;148;51.480;7.208;2022-09-23T21:03:31;10.57;;;6.10;;
321;SDS011;148;51.480;7.208;2022-09-23T21:06:00;10.83;;;5.73;;
321;SDS011;148;51.480;7.208;2022-09-23T21:08:27;10.40;;;6.37;;
321;SDS011;148;51.480;7.208;2022-09-23T21:10:54;12.13;;;6.43;;
321;SDS011;148;51.480;7.208;2022-09-23T21:13:23;14.40;;;6.83;;
321;SDS011;148;51.480;7.208;2022-09-23T21:15:49;12.97;;;7.27;;
321;SDS011;148;51.480;7.208;2022-09-23T21:18:15;11.30;;;6.17;;
321;SDS011;148;51.480;7.208;2022-09-23T21:20:41;14.20;;;6.53;;
321;SDS011;148;51.480;7.208;2022-09-23T21:23:07;10.30;;;5.80;;
321;SDS011;148;51.480;7.208;2022-09-23T21:25:33;13.00;;;7.10;;
321;SDS011;148;51.480;7.208;2022-09-23T21:28:00;15.10;;;6.80;;
321;SDS011;148;51.480;7.208;2022-09-23T21:30:27;13.90;;;6.13;;
321;SDS011;148;51.480;7.208;2022-09-23T21:32:53;9.20;;;6.10;;
321;SDS011;148;51.480;7.208;2022-09-23T21:35:19;11.63;;;6.10;;
321;SDS011;148;51.480;7.208;2022-09-23T21:37:45;12.67;;;7.60;;
321;SDS011;148;51.480;7.208;2022-09-23T21:40:11;9.67;;;6.30;;
321;SDS011;148;51.480;7.208;2022-09-23T21:42:57;11.83;;;6.73;;
321;SDS011;148;51.480;7.208;2022-09-23T21:45:23;13.13;;;7.00;;
321;SDS011;148;51.480;7.208;2022-09-23T21:47:49;13.93;;;6.70;;
321;SDS011;148;51.480;7.208;2022-09-23T21:50:15;15.63;;;7.47;;
321;SDS011;148;51.480;7.208;2022-09-23T21:52:42;10.20;;;6.50;;
321;SDS011;148;51.480;7.208;2022-09-23T21:55:09;9.53;;;6.13;;
321;SDS011;148;51.480;7.208;2022-09-23T21:57:34;15.37;;;6.07;;
321;SDS011;148;51.480;7.208;2022-09-23T22:00:00;15.17;;;6.10;;
321;SDS011;148;51.480;7.208;2022-09-23T22:02:26;16.27;;;6.00;;
321;SDS011;148;51.480;7.208;2022-09-23T22:04:52;9.37;;;5.80;;
321;SDS011;148;51.480;7.208;2022-09-23T22:07:17;12.03;;;6.20;;
321;SDS011;148;51.480;7.208;2022-09-23T22:09:44;7.43;;;4.80;;
321;SDS011;148;51.480;7.208;2022-09-23T22:12:11;8.50;;;5.73;;
321;SDS011;148;51.480;7.208;2022-09-23T22:14:37;14.43;;;7.00;;
321;SDS011;148;51.480;7.208;2022-09-23T22:17:04;9.10;;;5.60;;
321;SDS011;148;51.480;7.208;2022-09-23T22:19:32;11.53;;;5.63;;
321;SDS011;148;51.480;7.208;2022-09-23T22:22:00;8.17;;;5.90;;
321;SDS011;148;51.480;7.208;2022-09-23T22:24:27;11.87;;;6.10;;
321;SDS011;148;51.480;7.208;2022-09-23T22:26:52;13.80;;;6.50;;
321;SDS011;148;51.480;7.208;2022-09-23T22:29:18;13.30;;;5.60;;
321;SDS011;148;51.480;7.208;2022-09-23T22:32:04;13.67;;;6.30;;
321;SDS011;148;51.480;7.208;2022-09-23T22:34:52;9.50;;;5.80;;
321;SDS011;148;51.480;7.208;2022-09-23T22:37:19;13.17;;;6.03;;
321;SDS011;148;51.480;7.208;2022-09-23T22:39:49;10.63;;;5.57;;
321;SDS011;148;51.480;7.208;2022-09-23T22:42:15;11.53;;;6.13;;
321;SDS011;148;51.480;7.208;2022-09-23T22:44:40;6.60;;;5.37;;
321;SDS011;148;51.480;7.208;2022-09-23T22:47:07;10.40;;;5.80;;
321;SDS011;148;51.480;7.208;2022-09-23T22:49:33;10.50;;;5.80;;
321;SDS011;148;51.480;7.208;2022-09-23T22:52:00;14.57;;;5.43;;
321;SDS011;148;51.480;7.208;2022-09-23T22:54:26;15.93;;;5.90;;
321;SDS011;148;51.480;7.208;2022-09-23T22:56:52;12.33;;;5.90;;
321;SDS011;148;51.480;7.208;2022-09-23T22:59:19;11.00;;;5.47;;
321;SDS011;148;51.480;7.208;2022-09-23T23:01:44;17.40;;;6.40;;
321;SDS011;148;51.480;7.208;2022-09-23T23:04:10;13.77;;;5.63;;
321;SDS011;148;51.480;7.208;2022-09-23T23:06:36;12.40;;;6.30;;
321;SDS011;148;51.480;7.208;2022-09-23T23:09:06;17.87;;;6.03;;
321;SDS011;148;51.480;7.208;2022-09-23T23:11:33;15.43;;;6.13;;
321;SDS011;148;51.480;7.208;2022-09-23T23:14:00;9.70;;;6.37;;
321;SDS011;148;51.480;7.208;2022-09-23T23:16:27;15.07;;;6.03;;
321;SDS011;148;51.480;7.208;2022-09-23T23:18:53;8.73;;;5.63;;
321;SDS011;148;51.480;7.208;2022-09-23T23:21:20;14.90;;;6.40;;
321;SDS011;148;51.480;7.208;2022-09-23T23:23:47;10.20;;;5.70;;
321;SDS011;148;51.480;7.208;2022-09-23T23:26:15;11.57;;;5.93;;
321;SDS011;148;51.480;7.208;2022-09-23T23:28:49;13.20;;;5.93;;
321;SDS011;148;51.480;7.208;2022-09-23T23:31:17;9.37;;;6.37;;
321;SDS011;148;51.480;7.208;2022-09-23T23:33:44;14.70;;;6.10;;
321;SDS011;148;51.480;7.208;2022-09-23T23:36:11;13.00;;;6.30;;
321;SDS011;148;51.480;7.208;2022-09-23T23:38:39;18.43;;;15.50;;
321;SDS011;148;51.480;7.208;2022-09-23T23:41:10;36.23;;;6.93;;
321;SDS011;148;51.480;7.208;2022-09-23T23:43:41;13.67;;;6.97;;
321;SDS011;148;51.480;7.208;2022-09-23T23:46:11;13.57;;;7.43;;
321;SDS011;148;51.480;7.208;2022-09-23T23:48:37;15.50;;;8.97;;
321;SDS011;148;51.480;7.208;2022-09-23T23:51:04;11.80;;;6.80;;
321;SDS011;148;51.480;7.208;2022-09-23T23:53:32;18.23;;;7.97;;
321;SDS011;148;51.480;7.208;2022-09-23T23:56:00;14.63;;;7.43;;
321;SDS011;148;51.480;7.208;2022-09-23T23:58:34;18.73;;;7.77;;
